sensor_id;sensor_type;location;lat;lon;timestamp;P1;durP1;ratioP1;P2;durP2;ratioP2
21758;SDS011;11041;50.854;20.580;2023-04-03T00:01:08;16.35;;;11.95;;
21758;SDS011;11041;50.854;20.580;2023-04-03T00:03:35;12.65;;;11.35;;
21758;SDS011;11041;50.854;20.580;2023-04-03T00:06:03;14.65;;;11.20;;
21758;SDS011;11041;50.854;20.580;2023-04-03T00:08:32;13.52;;;12.10;;
21758;SDS011;11041;50.854;20.580;2023-04-03T00:10:58;13.82;;;10.75;;
21758;SDS011;11041;50.854;20.580;2023-04-03T00:13:25;13.20;;;11.02;;
21758;SDS011;11041;50.854;20.580;2023-04-03T00:15:52;15.10;;;9.77;;
21758;SDS011;11041;50.854;20.580;2023-04-03T00:18:20;16.35;;;11.90;;
21758;SDS011;11041;50.854;20.580;2023-04-03T00:20:47;18.38;;;12.10;;
21758;SDS011;11041;50.854;20.580;2023-04-03T00:23:15;15.82;;;13.05;;
21758;SDS011;11041;50.854;20.580;2023-04-03T00:25:42;15.63;;;10.75;;
21758;SDS011;11041;50.854;20.580;2023-04-03T00:28:09;13.95;;;10.40;;
21758;SDS011;11041;50.854;20.580;2023-04-03T00:30:36;13.45;;;10.88;;
21758;SDS011;11041;50.854;20.580;2023-04-03T00:33:02;13.45;;;11.02;;
21758;SDS011;11041;50.854;20.580;2023-04-03T00:35:29;15.57;;;12.52;;
21758;SDS011;11041;50.854;20.580;2023-04-03T00:37:56;13.80;;;10.93;;
21758;SDS011;11041;50.854;20.580;2023-04-03T00:40:23;12.98;;;9.77;;
21758;SDS011;11041;50.854;20.580;2023-04-03T00:42:57;12.70;;;10.40;;
21758;SDS011;11041;50.854;20.580;2023-04-03T00:48:02;11.20;;;10.00;;
21758;SDS011;11041;50.854;20.580;2023-04-03T00:50:33;13.43;;;10.88;;
21758;SDS011;11041;50.854;20.580;2023-04-03T00:53:05;15.15;;;11.32;;
21758;SDS011;11041;50.854;20.580;2023-04-03T00:55:35;14.23;;;10.77;;
21758;SDS011;11041;50.854;20.580;2023-04-03T00:58:09;17.97;;;14.23;;
21758;SDS011;11041;50.854;20.580;2023-04-03T01:00:38;15.30;;;11.23;;
21758;SDS011;11041;50.854;20.580;2023-04-03T01:03:12;15.50;;;12.47;;
21758;SDS011;11041;50.854;20.580;2023-04-03T01:05:39;13.67;;;10.63;;
21758;SDS011;11041;50.854;20.580;2023-04-03T01:08:06;12.23;;;10.63;;
21758;SDS011;11041;50.854;20.580;2023-04-03T01:10:33;12.10;;;9.13;;
21758;SDS011;11041;50.854;20.580;2023-04-03T01:13:00;10.03;;;9.03;;
21758;SDS011;11041;50.854;20.580;2023-04-03T01:15:27;11.05;;;9.90;;
21758;SDS011;11041;50.854;20.580;2023-04-03T01:18:00;10.63;;;8.97;;
21758;SDS011;11041;50.854;20.580;2023-04-03T01:25:35;30.73;;;10.53;;
21758;SDS011;11041;50.854;20.580;2023-04-03T01:28:18;11.47;;;10.00;;
21758;SDS011;11041;50.854;20.580;2023-04-03T01:33:46;12.67;;;9.10;;
21758;SDS011;11041;50.854;20.580;2023-04-03T01:36:17;13.75;;;11.95;;
21758;SDS011;11041;50.854;20.580;2023-04-03T01:38:54;14.20;;;12.47;;
21758;SDS011;11041;50.854;20.580;2023-04-03T01:41:22;12.53;;;9.03;;
21758;SDS011;11041;50.854;20.580;2023-04-03T01:43:49;13.45;;;10.23;;
21758;SDS011;11041;50.854;20.580;2023-04-03T01:46:16;44.90;;;11.07;;
21758;SDS011;11041;50.854;20.580;2023-04-03T01:48:44;11.30;;;9.67;;
21758;SDS011;11041;50.854;20.580;2023-04-03T01:51:11;12.73;;;10.20;;
21758;SDS011;11041;50.854;20.580;2023-04-03T01:53:37;14.52;;;10.75;;
21758;SDS011;11041;50.854;20.580;2023-04-03T01:56:04;16.53;;;11.80;;
21758;SDS011;11041;50.854;20.580;2023-04-03T01:58:31;9.70;;;8.27;;
21758;SDS011;11041;50.854;20.580;2023-04-03T02:00:57;9.73;;;7.73;;
21758;SDS011;11041;50.854;20.580;2023-04-03T02:03:24;9.60;;;7.40;;
21758;SDS011;11041;50.854;20.580;2023-04-03T02:05:50;12.40;;;5.90;;
21758;SDS011;11041;50.854;20.580;2023-04-03T02:08:18;8.97;;;7.57;;
21758;SDS011;11041;50.854;20.580;2023-04-03T02:10:46;8.50;;;7.30;;
21758;SDS011;11041;50.854;20.580;2023-04-03T02:13:15;8.10;;;7.30;;
21758;SDS011;11041;50.854;20.580;2023-04-03T02:15:43;8.33;;;7.53;;
21758;SDS011;11041;50.854;20.580;2023-04-03T02:18:11;16.80;;;8.33;;
21758;SDS011;11041;50.854;20.580;2023-04-03T02:20:38;7.80;;;6.40;;
21758;SDS011;11041;50.854;20.580;2023-04-03T02:23:04;8.10;;;6.10;;
21758;SDS011;11041;50.854;20.580;2023-04-03T02:25:31;6.80;;;5.87;;
21758;SDS011;11041;50.854;20.580;2023-04-03T02:27:58;9.23;;;6.67;;
21758;SDS011;11041;50.854;20.580;2023-04-03T02:30:25;9.87;;;8.00;;
21758;SDS011;11041;50.854;20.580;2023-04-03T02:32:52;10.13;;;9.10;;
21758;SDS011;11041;50.854;20.580;2023-04-03T02:35:18;11.70;;;8.97;;
21758;SDS011;11041;50.854;20.580;2023-04-03T02:37:45;12.10;;;8.30;;
21758;SDS011;11041;50.854;20.580;2023-04-03T02:40:12;13.47;;;9.83;;
21758;SDS011;11041;50.854;20.580;2023-04-03T02:42:38;10.07;;;7.77;;
21758;SDS011;11041;50.854;20.580;2023-04-03T02:45:05;8.93;;;7.87;;
21758;SDS011;11041;50.854;20.580;2023-04-03T02:47:32;9.33;;;7.10;;
21758;SDS011;11041;50.854;20.580;2023-04-03T02:49:59;8.32;;;7.45;;
21758;SDS011;11041;50.854;20.580;2023-04-03T02:52:25;8.35;;;6.40;;
21758;SDS011;11041;50.854;20.580;2023-04-03T02:54:52;7.88;;;7.07;;
21758;SDS011;11041;50.854;20.580;2023-04-03T02:57:18;9.10;;;6.53;;
21758;SDS011;11041;50.854;20.580;2023-04-03T02:59:45;8.53;;;7.30;;
21758;SDS011;11041;50.854;20.580;2023-04-03T03:02:12;8.63;;;6.90;;
21758;SDS011;11041;50.854;20.580;2023-04-03T03:04:38;8.73;;;6.60;;
21758;SDS011;11041;50.854;20.580;2023-04-03T03:07:23;11.57;;;7.00;;
21758;SDS011;11041;50.854;20.580;2023-04-03T03:09:51;8.73;;;7.07;;
21758;SDS011;11041;50.854;20.580;2023-04-03T03:12:18;9.03;;;6.43;;
21758;SDS011;11041;50.854;20.580;2023-04-03T03:14:48;9.63;;;6.50;;
21758;SDS011;11041;50.854;20.580;2023-04-03T03:17:15;40.20;;;8.23;;
21758;SDS011;11041;50.854;20.580;2023-04-03T03:19:43;8.50;;;5.23;;
21758;SDS011;11041;50.854;20.580;2023-04-03T03:22:11;11.80;;;6.60;;
21758;SDS011;11041;50.854;20.580;2023-04-03T03:24:37;10.73;;;7.00;;
21758;SDS011;11041;50.854;20.580;2023-04-03T03:27:04;9.13;;;6.30;;
21758;SDS011;11041;50.854;20.580;2023-04-03T03:29:31;11.30;;;9.53;;
21758;SDS011;11041;50.854;20.580;2023-04-03T03:31:57;11.77;;;8.30;;
21758;SDS011;11041;50.854;20.580;2023-04-03T03:34:23;10.67;;;7.67;;
21758;SDS011;11041;50.854;20.580;2023-04-03T03:36:50;6.67;;;5.63;;
21758;SDS011;11041;50.854;20.580;2023-04-03T03:39:17;7.93;;;5.43;;
21758;SDS011;11041;50.854;20.580;2023-04-03T03:41:43;6.60;;;4.67;;
21758;SDS011;11041;50.854;20.580;2023-04-03T03:44:09;8.23;;;5.47;;
21758;SDS011;11041;50.854;20.580;2023-04-03T03:46:36;7.53;;;4.73;;
21758;SDS011;11041;50.854;20.580;2023-04-03T03:49:03;12.25;;;5.90;;
21758;SDS011;11041;50.854;20.580;2023-04-03T03:51:29;11.17;;;6.30;;
21758;SDS011;11041;50.854;20.580;2023-04-03T03:53:56;11.07;;;5.50;;
21758;SDS011;11041;50.854;20.580;2023-04-03T03:56:22;7.70;;;5.17;;
21758;SDS011;11041;50.854;20.580;2023-04-03T03:58:49;8.57;;;5.40;;
21758;SDS011;11041;50.854;20.580;2023-04-03T04:01:16;9.88;;;4.80;;
21758;SDS011;11041;50.854;20.580;2023-04-03T04:03:43;7.63;;;4.60;;
21758;SDS011;11041;50.854;20.580;2023-04-03T04:06:10;7.03;;;4.53;;
21758;SDS011;11041;50.854;20.580;2023-04-03T04:08:37;7.63;;;4.27;;
21758;SDS011;11041;50.854;20.580;2023-04-03T04:11:03;5.63;;;4.37;;
21758;SDS011;11041;50.854;20.580;2023-04-03T04:13:30;7.77;;;4.50;;
21758;SDS011;11041;50.854;20.580;2023-04-03T04:15:56;7.90;;;4.93;;
21758;SDS011;11041;50.854;20.580;2023-04-03T04:18:23;6.53;;;3.77;;
21758;SDS011;11041;50.854;20.580;2023-04-03T04:20:50;7.13;;;4.10;;
21758;SDS011;11041;50.854;20.580;2023-04-03T04:23:17;7.20;;;3.27;;
21758;SDS011;11041;50.854;20.580;2023-04-03T04:25:48;5.77;;;3.67;;
21758;SDS011;11041;50.854;20.580;2023-04-03T04:28:15;6.97;;;3.40;;
21758;SDS011;11041;50.854;20.580;2023-04-03T04:30:43;4.50;;;3.22;;
21758;SDS011;11041;50.854;20.580;2023-04-03T04:33:10;7.87;;;3.47;;
21758;SDS011;11041;50.854;20.580;2023-04-03T04:35:37;8.13;;;3.30;;
21758;SDS011;11041;50.854;20.580;2023-04-03T04:38:04;6.17;;;3.27;;
21758;SDS011;11041;50.854;20.580;2023-04-03T04:40:31;5.50;;;3.83;;
21758;SDS011;11041;50.854;20.580;2023-04-03T04:42:57;3.77;;;2.90;;
21758;SDS011;11041;50.854;20.580;2023-04-03T04:45:24;6.10;;;4.07;;
21758;SDS011;11041;50.854;20.580;2023-04-03T04:47:50;5.67;;;3.60;;
21758;SDS011;11041;50.854;20.580;2023-04-03T04:50:18;5.83;;;3.53;;
21758;SDS011;11041;50.854;20.580;2023-04-03T04:52:45;7.23;;;4.57;;
21758;SDS011;11041;50.854;20.580;2023-04-03T04:55:11;6.80;;;4.57;;
21758;SDS011;11041;50.854;20.580;2023-04-03T04:57:38;8.87;;;3.93;;
21758;SDS011;11041;50.854;20.580;2023-04-03T05:00:05;6.10;;;4.17;;
21758;SDS011;11041;50.854;20.580;2023-04-03T05:02:32;4.90;;;3.37;;
21758;SDS011;11041;50.854;20.580;2023-04-03T05:04:58;8.33;;;3.60;;
21758;SDS011;11041;50.854;20.580;2023-04-03T05:07:25;7.90;;;4.30;;
21758;SDS011;11041;50.854;20.580;2023-04-03T05:09:51;8.87;;;3.73;;
21758;SDS011;11041;50.854;20.580;2023-04-03T05:12:18;8.47;;;3.67;;
21758;SDS011;11041;50.854;20.580;2023-04-03T05:14:44;9.10;;;4.40;;
21758;SDS011;11041;50.854;20.580;2023-04-03T05:17:11;12.20;;;7.37;;
21758;SDS011;11041;50.854;20.580;2023-04-03T05:19:37;17.37;;;9.37;;
21758;SDS011;11041;50.854;20.580;2023-04-03T05:22:04;16.13;;;9.27;;
21758;SDS011;11041;50.854;20.580;2023-04-03T05:24:30;16.17;;;9.40;;
21758;SDS011;11041;50.854;20.580;2023-04-03T05:26:57;12.47;;;8.43;;
21758;SDS011;11041;50.854;20.580;2023-04-03T05:29:24;9.27;;;5.03;;
21758;SDS011;11041;50.854;20.580;2023-04-03T05:31:50;7.00;;;4.43;;
21758;SDS011;11041;50.854;20.580;2023-04-03T05:34:17;12.67;;;5.20;;
21758;SDS011;11041;50.854;20.580;2023-04-03T05:36:43;10.07;;;5.67;;
21758;SDS011;11041;50.854;20.580;2023-04-03T05:39:10;7.40;;;4.17;;
21758;SDS011;11041;50.854;20.580;2023-04-03T05:41:37;7.33;;;3.37;;
21758;SDS011;11041;50.854;20.580;2023-04-03T05:44:03;10.67;;;8.63;;
21758;SDS011;11041;50.854;20.580;2023-04-03T05:46:30;8.77;;;4.40;;
21758;SDS011;11041;50.854;20.580;2023-04-03T05:48:56;7.40;;;4.50;;
21758;SDS011;11041;50.854;20.580;2023-04-03T05:51:28;6.33;;;4.17;;
21758;SDS011;11041;50.854;20.580;2023-04-03T05:54:12;5.47;;;4.00;;
21758;SDS011;11041;50.854;20.580;2023-04-03T05:56:55;6.67;;;4.00;;
21758;SDS011;11041;50.854;20.580;2023-04-03T05:59:21;6.73;;;3.50;;
21758;SDS011;11041;50.854;20.580;2023-04-03T06:01:48;6.67;;;3.53;;
21758;SDS011;11041;50.854;20.580;2023-04-03T06:04:14;8.53;;;4.17;;
21758;SDS011;11041;50.854;20.580;2023-04-03T06:06:51;7.03;;;5.27;;
21758;SDS011;11041;50.854;20.580;2023-04-03T06:09:22;8.40;;;5.87;;
21758;SDS011;11041;50.854;20.580;2023-04-03T06:11:52;5.10;;;3.67;;
21758;SDS011;11041;50.854;20.580;2023-04-03T06:14:20;10.50;;;4.47;;
21758;SDS011;11041;50.854;20.580;2023-04-03T06:16:46;8.00;;;4.57;;
21758;SDS011;11041;50.854;20.580;2023-04-03T06:19:38;7.80;;;3.83;;
21758;SDS011;11041;50.854;20.580;2023-04-03T06:22:30;5.57;;;3.33;;
21758;SDS011;11041;50.854;20.580;2023-04-03T06:25:21;8.20;;;4.17;;
21758;SDS011;11041;50.854;20.580;2023-04-03T06:28:12;7.47;;;3.67;;
21758;SDS011;11041;50.854;20.580;2023-04-03T06:31:04;7.30;;;3.83;;
21758;SDS011;11041;50.854;20.580;2023-04-03T06:33:55;6.90;;;3.90;;
21758;SDS011;11041;50.854;20.580;2023-04-03T06:36:47;10.10;;;4.23;;
21758;SDS011;11041;50.854;20.580;2023-04-03T06:39:41;6.87;;;4.30;;
21758;SDS011;11041;50.854;20.580;2023-04-03T06:42:32;7.73;;;4.40;;
21758;SDS011;11041;50.854;20.580;2023-04-03T06:45:23;8.20;;;4.07;;
21758;SDS011;11041;50.854;20.580;2023-04-03T06:48:31;4.63;;;3.40;;
21758;SDS011;11041;50.854;20.580;2023-04-03T06:51:27;8.87;;;5.00;;
21758;SDS011;11041;50.854;20.580;2023-04-03T06:54:20;7.53;;;4.03;;
21758;SDS011;11041;50.854;20.580;2023-04-03T07:01:19;6.33;;;4.00;;
21758;SDS011;11041;50.854;20.580;2023-04-03T07:03:47;13.63;;;5.47;;
21758;SDS011;11041;50.854;20.580;2023-04-03T07:06:15;8.23;;;4.20;;
21758;SDS011;11041;50.854;20.580;2023-04-03T07:08:45;5.60;;;3.20;;
21758;SDS011;11041;50.854;20.580;2023-04-03T07:11:14;4.70;;;2.87;;
21758;SDS011;11041;50.854;20.580;2023-04-03T07:13:42;5.93;;;4.07;;
21758;SDS011;11041;50.854;20.580;2023-04-03T07:16:08;9.83;;;4.30;;
21758;SDS011;11041;50.854;20.580;2023-04-03T07:18:35;5.43;;;3.60;;
21758;SDS011;11041;50.854;20.580;2023-04-03T07:21:02;8.80;;;4.47;;
21758;SDS011;11041;50.854;20.580;2023-04-03T07:23:29;7.43;;;4.80;;
21758;SDS011;11041;50.854;20.580;2023-04-03T07:25:57;6.07;;;4.47;;
21758;SDS011;11041;50.854;20.580;2023-04-03T07:28:23;14.13;;;6.70;;
21758;SDS011;11041;50.854;20.580;2023-04-03T07:30:52;7.17;;;4.40;;
21758;SDS011;11041;50.854;20.580;2023-04-03T07:33:34;10.10;;;5.70;;
21758;SDS011;11041;50.854;20.580;2023-04-03T07:36:01;5.35;;;3.33;;
21758;SDS011;11041;50.854;20.580;2023-04-03T07:38:29;10.30;;;4.43;;
21758;SDS011;11041;50.854;20.580;2023-04-03T07:40:56;8.03;;;5.20;;
21758;SDS011;11041;50.854;20.580;2023-04-03T07:43:22;10.73;;;6.07;;
21758;SDS011;11041;50.854;20.580;2023-04-03T07:45:50;5.17;;;3.57;;
21758;SDS011;11041;50.854;20.580;2023-04-03T07:48:22;10.57;;;5.20;;
21758;SDS011;11041;50.854;20.580;2023-04-03T07:50:51;8.30;;;4.60;;
21758;SDS011;11041;50.854;20.580;2023-04-03T07:53:18;9.20;;;4.37;;
21758;SDS011;11041;50.854;20.580;2023-04-03T07:55:48;8.60;;;4.97;;
21758;SDS011;11041;50.854;20.580;2023-04-03T07:58:17;6.47;;;4.07;;
21758;SDS011;11041;50.854;20.580;2023-04-03T08:00:45;6.30;;;3.77;;
21758;SDS011;11041;50.854;20.580;2023-04-03T08:03:11;6.47;;;4.07;;
21758;SDS011;11041;50.854;20.580;2023-04-03T08:05:41;5.90;;;3.73;;
21758;SDS011;11041;50.854;20.580;2023-04-03T08:08:12;8.27;;;4.03;;
21758;SDS011;11041;50.854;20.580;2023-04-03T08:10:42;6.27;;;3.60;;
21758;SDS011;11041;50.854;20.580;2023-04-03T08:13:08;7.07;;;3.90;;
21758;SDS011;11041;50.854;20.580;2023-04-03T08:15:35;8.73;;;4.67;;
21758;SDS011;11041;50.854;20.580;2023-04-03T08:18:03;8.87;;;4.53;;
21758;SDS011;11041;50.854;20.580;2023-04-03T08:20:30;6.10;;;3.93;;
21758;SDS011;11041;50.854;20.580;2023-04-03T08:22:56;7.57;;;5.03;;
21758;SDS011;11041;50.854;20.580;2023-04-03T08:25:23;6.50;;;3.97;;
21758;SDS011;11041;50.854;20.580;2023-04-03T08:27:50;7.23;;;4.53;;
21758;SDS011;11041;50.854;20.580;2023-04-03T08:30:17;6.60;;;4.70;;
21758;SDS011;11041;50.854;20.580;2023-04-03T08:32:43;6.63;;;4.67;;
21758;SDS011;11041;50.854;20.580;2023-04-03T08:35:11;6.07;;;4.10;;
21758;SDS011;11041;50.854;20.580;2023-04-03T08:37:38;9.00;;;4.50;;
21758;SDS011;11041;50.854;20.580;2023-04-03T08:40:06;6.40;;;4.20;;
21758;SDS011;11041;50.854;20.580;2023-04-03T08:45:50;12.63;;;5.10;;
21758;SDS011;11041;50.854;20.580;2023-04-03T08:48:54;7.83;;;5.03;;
21758;SDS011;11041;50.854;20.580;2023-04-03T08:51:17;8.43;;;4.83;;
21758;SDS011;11041;50.854;20.580;2023-04-03T08:54:03;6.47;;;4.37;;
21758;SDS011;11041;50.854;20.580;2023-04-03T08:57:02;5.90;;;4.17;;
21758;SDS011;11041;50.854;20.580;2023-04-03T08:59:33;11.50;;;5.80;;
21758;SDS011;11041;50.854;20.580;2023-04-03T09:02:04;7.37;;;5.57;;
21758;SDS011;11041;50.854;20.580;2023-04-03T09:04:57;11.30;;;6.10;;
21758;SDS011;11041;50.854;20.580;2023-04-03T09:07:38;9.73;;;6.13;;
21758;SDS011;11041;50.854;20.580;2023-04-03T09:10:12;6.27;;;4.60;;
21758;SDS011;11041;50.854;20.580;2023-04-03T09:12:46;6.77;;;4.40;;
21758;SDS011;11041;50.854;20.580;2023-04-03T09:19:54;28.17;;;23.37;;
21758;SDS011;11041;50.854;20.580;2023-04-03T09:23:33;7.23;;;4.83;;
21758;SDS011;11041;50.854;20.580;2023-04-03T09:26:39;9.90;;;4.63;;
21758;SDS011;11041;50.854;20.580;2023-04-03T09:29:36;12.93;;;7.00;;
21758;SDS011;11041;50.854;20.580;2023-04-03T09:32:34;12.67;;;9.27;;
21758;SDS011;11041;50.854;20.580;2023-04-03T09:35:30;12.10;;;9.27;;
21758;SDS011;11041;50.854;20.580;2023-04-03T09:38:27;11.82;;;7.60;;
21758;SDS011;11041;50.854;20.580;2023-04-03T10:01:00;8.63;;;4.88;;
21758;SDS011;11041;50.854;20.580;2023-04-03T10:03:35;11.13;;;7.55;;
21758;SDS011;11041;50.854;20.580;2023-04-03T10:06:04;7.07;;;4.72;;
21758;SDS011;11041;50.854;20.580;2023-04-03T10:09:32;13.40;;;10.13;;
21758;SDS011;11041;50.854;20.580;2023-04-03T10:14:38;10.23;;;6.33;;
21758;SDS011;11041;50.854;20.580;2023-04-03T10:22:56;6.38;;;3.92;;
21758;SDS011;11041;50.854;20.580;2023-04-03T10:34:42;8.43;;;4.00;;
21758;SDS011;11041;50.854;20.580;2023-04-03T10:37:24;7.00;;;3.60;;
21758;SDS011;11041;50.854;20.580;2023-04-03T10:43:04;8.07;;;4.22;;
21758;SDS011;11041;50.854;20.580;2023-04-03T10:46:09;5.57;;;4.07;;
21758;SDS011;11041;50.854;20.580;2023-04-03T10:51:29;11.15;;;5.05;;
21758;SDS011;11041;50.854;20.580;2023-04-03T10:57:22;9.27;;;4.93;;
21758;SDS011;11041;50.854;20.580;2023-04-03T11:00:02;7.75;;;4.38;;
21758;SDS011;11041;50.854;20.580;2023-04-03T11:02:54;24.05;;;6.72;;
21758;SDS011;11041;50.854;20.580;2023-04-03T11:05:41;8.23;;;5.30;;
21758;SDS011;11041;50.854;20.580;2023-04-03T11:08:21;7.55;;;5.18;;
21758;SDS011;11041;50.854;20.580;2023-04-03T11:11:15;6.97;;;4.55;;
21758;SDS011;11041;50.854;20.580;2023-04-03T11:23:03;6.38;;;3.38;;
21758;SDS011;11041;50.854;20.580;2023-04-03T11:25:56;5.15;;;3.38;;
21758;SDS011;11041;50.854;20.580;2023-04-03T11:28:33;7.68;;;4.85;;
21758;SDS011;11041;50.854;20.580;2023-04-03T11:31:15;5.55;;;3.60;;
21758;SDS011;11041;50.854;20.580;2023-04-03T11:37:21;6.40;;;3.28;;
21758;SDS011;11041;50.854;20.580;2023-04-03T11:39:53;5.25;;;3.40;;
21758;SDS011;11041;50.854;20.580;2023-04-03T11:53:41;4.82;;;3.63;;
21758;SDS011;11041;50.854;20.580;2023-04-03T12:01:53;6.13;;;4.03;;
21758;SDS011;11041;50.854;20.580;2023-04-03T12:04:22;5.78;;;3.75;;
21758;SDS011;11041;50.854;20.580;2023-04-03T12:06:57;7.13;;;3.40;;
21758;SDS011;11041;50.854;20.580;2023-04-03T12:15:18;6.85;;;3.90;;
21758;SDS011;11041;50.854;20.580;2023-04-03T12:21:14;5.13;;;3.60;;
21758;SDS011;11041;50.854;20.580;2023-04-03T12:40:50;7.03;;;4.65;;
21758;SDS011;11041;50.854;20.580;2023-04-03T12:52:17;4.63;;;3.33;;
21758;SDS011;11041;50.854;20.580;2023-04-03T12:54:50;5.15;;;2.97;;
21758;SDS011;11041;50.854;20.580;2023-04-03T12:57:20;4.50;;;3.17;;
21758;SDS011;11041;50.854;20.580;2023-04-03T12:59:52;6.40;;;4.07;;
21758;SDS011;11041;50.854;20.580;2023-04-03T13:02:27;7.00;;;4.05;;
21758;SDS011;11041;50.854;20.580;2023-04-03T13:04:58;5.22;;;3.33;;
21758;SDS011;11041;50.854;20.580;2023-04-03T13:07:34;5.95;;;3.78;;
21758;SDS011;11041;50.854;20.580;2023-04-03T13:12:34;4.75;;;3.10;;
21758;SDS011;11041;50.854;20.580;2023-04-03T13:15:29;6.65;;;3.85;;
21758;SDS011;11041;50.854;20.580;2023-04-03T13:21:19;7.40;;;4.15;;
21758;SDS011;11041;50.854;20.580;2023-04-03T13:23:51;7.20;;;4.13;;
21758;SDS011;11041;50.854;20.580;2023-04-03T13:26:24;5.95;;;4.00;;
21758;SDS011;11041;50.854;20.580;2023-04-03T13:29:00;10.07;;;4.00;;
21758;SDS011;11041;50.854;20.580;2023-04-03T13:31:44;9.07;;;3.58;;
21758;SDS011;11041;50.854;20.580;2023-04-03T13:34:19;5.63;;;3.33;;
21758;SDS011;11041;50.854;20.580;2023-04-03T13:39:25;4.88;;;3.20;;
21758;SDS011;11041;50.854;20.580;2023-04-03T13:45:34;6.25;;;3.45;;
21758;SDS011;11041;50.854;20.580;2023-04-03T13:47:52;5.65;;;3.50;;
21758;SDS011;11041;50.854;20.580;2023-04-03T13:50:41;5.60;;;3.33;;
21758;SDS011;11041;50.854;20.580;2023-04-03T13:53:21;7.43;;;3.42;;
21758;SDS011;11041;50.854;20.580;2023-04-03T13:56:08;5.63;;;3.75;;
21758;SDS011;11041;50.854;20.580;2023-04-03T13:59:46;9.75;;;4.25;;
21758;SDS011;11041;50.854;20.580;2023-04-03T14:01:46;7.32;;;3.72;;
21758;SDS011;11041;50.854;20.580;2023-04-03T14:04:20;4.28;;;3.03;;
21758;SDS011;11041;50.854;20.580;2023-04-03T14:06:53;5.63;;;2.85;;
21758;SDS011;11041;50.854;20.580;2023-04-03T14:09:21;4.30;;;2.90;;
21758;SDS011;11041;50.854;20.580;2023-04-03T14:11:53;2.53;;;2.28;;
21758;SDS011;11041;50.854;20.580;2023-04-03T14:14:31;3.97;;;2.90;;
21758;SDS011;11041;50.854;20.580;2023-04-03T14:17:02;5.03;;;3.75;;
21758;SDS011;11041;50.854;20.580;2023-04-03T14:19:40;5.68;;;3.72;;
21758;SDS011;11041;50.854;20.580;2023-04-03T14:22:11;29.20;;;17.80;;
21758;SDS011;11041;50.854;20.580;2023-04-03T14:24:45;2.80;;;2.17;;
21758;SDS011;11041;50.854;20.580;2023-04-03T14:27:16;5.32;;;3.10;;
21758;SDS011;11041;50.854;20.580;2023-04-03T14:30:06;10.90;;;4.72;;
21758;SDS011;11041;50.854;20.580;2023-04-03T14:32:42;4.03;;;2.85;;
21758;SDS011;11041;50.854;20.580;2023-04-03T14:35:10;4.15;;;2.67;;
21758;SDS011;11041;50.854;20.580;2023-04-03T14:37:37;5.20;;;3.55;;
21758;SDS011;11041;50.854;20.580;2023-04-03T14:40:05;20.23;;;10.55;;
21758;SDS011;11041;50.854;20.580;2023-04-03T14:42:35;38.25;;;17.83;;
21758;SDS011;11041;50.854;20.580;2023-04-03T14:45:05;8.23;;;5.10;;
21758;SDS011;11041;50.854;20.580;2023-04-03T14:47:42;6.47;;;3.95;;
21758;SDS011;11041;50.854;20.580;2023-04-03T14:50:18;5.20;;;3.50;;
21758;SDS011;11041;50.854;20.580;2023-04-03T14:52:50;6.55;;;3.60;;
21758;SDS011;11041;50.854;20.580;2023-04-03T14:55:20;7.68;;;3.70;;
21758;SDS011;11041;50.854;20.580;2023-04-03T14:57:49;6.35;;;3.38;;
21758;SDS011;11041;50.854;20.580;2023-04-03T15:00:18;6.15;;;3.88;;
21758;SDS011;11041;50.854;20.580;2023-04-03T15:02:47;5.05;;;2.85;;
21758;SDS011;11041;50.854;20.580;2023-04-03T15:05:14;6.53;;;3.80;;
21758;SDS011;11041;50.854;20.580;2023-04-03T15:07:42;9.73;;;6.10;;
21758;SDS011;11041;50.854;20.580;2023-04-03T15:10:19;6.82;;;3.08;;
21758;SDS011;11041;50.854;20.580;2023-04-03T15:12:52;7.45;;;3.80;;
21758;SDS011;11041;50.854;20.580;2023-04-03T15:15:20;4.90;;;3.00;;
21758;SDS011;11041;50.854;20.580;2023-04-03T15:17:52;6.13;;;3.75;;
21758;SDS011;11041;50.854;20.580;2023-04-03T15:20:24;5.18;;;3.85;;
21758;SDS011;11041;50.854;20.580;2023-04-03T15:22:53;5.60;;;4.28;;
21758;SDS011;11041;50.854;20.580;2023-04-03T15:25:21;8.88;;;6.35;;
21758;SDS011;11041;50.854;20.580;2023-04-03T15:27:49;5.55;;;3.47;;
21758;SDS011;11041;50.854;20.580;2023-04-03T15:30:17;4.53;;;3.13;;
21758;SDS011;11041;50.854;20.580;2023-04-03T15:32:45;5.15;;;3.45;;
21758;SDS011;11041;50.854;20.580;2023-04-03T15:35:12;5.10;;;3.38;;
21758;SDS011;11041;50.854;20.580;2023-04-03T15:37:41;3.88;;;2.80;;
21758;SDS011;11041;50.854;20.580;2023-04-03T15:40:13;5.88;;;3.15;;
21758;SDS011;11041;50.854;20.580;2023-04-03T15:42:41;5.43;;;3.70;;
21758;SDS011;11041;50.854;20.580;2023-04-03T15:45:09;5.53;;;3.00;;
21758;SDS011;11041;50.854;20.580;2023-04-03T15:47:36;5.50;;;4.18;;
21758;SDS011;11041;50.854;20.580;2023-04-03T15:50:03;6.50;;;2.92;;
21758;SDS011;11041;50.854;20.580;2023-04-03T15:52:33;5.40;;;3.53;;
21758;SDS011;11041;50.854;20.580;2023-04-03T15:55:00;6.93;;;4.07;;
21758;SDS011;11041;50.854;20.580;2023-04-03T15:57:28;6.88;;;4.35;;
21758;SDS011;11041;50.854;20.580;2023-04-03T15:59:56;8.00;;;4.50;;
21758;SDS011;11041;50.854;20.580;2023-04-03T16:02:23;7.50;;;4.80;;
21758;SDS011;11041;50.854;20.580;2023-04-03T16:04:53;9.40;;;5.57;;
21758;SDS011;11041;50.854;20.580;2023-04-03T16:07:21;10.98;;;5.30;;
21758;SDS011;11041;50.854;20.580;2023-04-03T16:09:47;7.07;;;3.65;;
21758;SDS011;11041;50.854;20.580;2023-04-03T16:12:14;6.75;;;3.47;;
21758;SDS011;11041;50.854;20.580;2023-04-03T16:14:41;6.70;;;3.85;;
21758;SDS011;11041;50.854;20.580;2023-04-03T16:17:07;6.82;;;3.63;;
21758;SDS011;11041;50.854;20.580;2023-04-03T16:19:34;6.97;;;3.33;;
21758;SDS011;11041;50.854;20.580;2023-04-03T16:22:01;6.65;;;3.85;;
21758;SDS011;11041;50.854;20.580;2023-04-03T16:24:27;8.57;;;4.32;;
21758;SDS011;11041;50.854;20.580;2023-04-03T16:26:57;8.18;;;5.03;;
21758;SDS011;11041;50.854;20.580;2023-04-03T16:29:23;9.77;;;4.45;;
21758;SDS011;11041;50.854;20.580;2023-04-03T16:31:51;11.07;;;6.70;;
21758;SDS011;11041;50.854;20.580;2023-04-03T16:34:18;11.45;;;7.40;;
21758;SDS011;11041;50.854;20.580;2023-04-03T16:36:45;6.75;;;4.32;;
21758;SDS011;11041;50.854;20.580;2023-04-03T16:39:11;8.50;;;4.30;;
21758;SDS011;11041;50.854;20.580;2023-04-03T16:41:39;9.43;;;4.00;;
21758;SDS011;11041;50.854;20.580;2023-04-03T16:44:11;10.93;;;5.43;;
21758;SDS011;11041;50.854;20.580;2023-04-03T16:47:00;7.10;;;4.20;;
21758;SDS011;11041;50.854;20.580;2023-04-03T16:49:32;15.07;;;7.93;;
21758;SDS011;11041;50.854;20.580;2023-04-03T16:52:06;8.90;;;4.95;;
21758;SDS011;11041;50.854;20.580;2023-04-03T16:54:32;5.65;;;4.28;;
21758;SDS011;11041;50.854;20.580;2023-04-03T16:57:02;9.73;;;5.82;;
21758;SDS011;11041;50.854;20.580;2023-04-03T17:07:40;12.73;;;7.03;;
21758;SDS011;11041;50.854;20.580;2023-04-03T17:10:06;15.75;;;7.97;;
21758;SDS011;11041;50.854;20.580;2023-04-03T17:12:34;11.55;;;8.25;;
21758;SDS011;11041;50.854;20.580;2023-04-03T17:15:00;8.43;;;5.65;;
21758;SDS011;11041;50.854;20.580;2023-04-03T17:17:27;10.40;;;6.07;;
21758;SDS011;11041;50.854;20.580;2023-04-03T17:19:53;15.10;;;8.35;;
21758;SDS011;11041;50.854;20.580;2023-04-03T17:22:21;22.33;;;9.55;;
21758;SDS011;11041;50.854;20.580;2023-04-03T17:24:47;15.43;;;8.65;;
21758;SDS011;11041;50.854;20.580;2023-04-03T17:27:14;15.23;;;8.90;;
21758;SDS011;11041;50.854;20.580;2023-04-03T17:29:40;17.80;;;10.60;;